Time;durP1;ratioP1;P1;durP2;ratioP2;P2;SDS_P1;SDS_P2;PMS_P1;PMS_P2;Temp;Humidity;BMP_temperature;BMP_pressure;BME280_temperature;BME280_humidity;BME280_pressure;Samples;Min_cycle;Max_cycle;Signal;HPM_P1;HPM_P2
2022/03/02 00:02:15;;;;;;;;;25.00;20.25;;;;;;;;5025711;28;51149;-46
2022/03/02 00:05:00;;;;;;;;;23.50;21.25;;;;;;;;5030961;28;51324;-46
2022/03/02 00:07:44;;;;;;;;;19.75;17.50;;;;;;;;5034797;28;51104;-45
2022/03/02 00:10:29;;;;;;;;;4.50;0.00;;;;;;;;5032222;28;51144;-45
2022/03/02 00:13:14;;;;;;;;;21.50;16.00;;;;;;;;5028869;28;51604;-44
2022/03/02 00:15:58;;;;;;;;;21.75;15.00;;;;;;;;5023870;28;51115;-46
2022/03/02 00:18:43;;;;;;;;;23.00;18.00;;;;;;;;5024809;28;51087;-45
2022/03/02 00:21:28;;;;;;;;;20.50;16.25;;;;;;;;5022916;28;51217;-50
2022/03/02 00:24:12;;;;;;;;;24.75;15.50;;;;;;;;5028149;28;51531;-46
2022/03/02 00:26:57;;;;;;;;;21.50;15.75;;;;;;;;5038831;28;51211;-45
2022/03/02 00:29:41;;;;;;;;;21.75;19.75;;;;;;;;5039207;28;51227;-44
2022/03/02 00:32:26;;;;;;;;;20.50;17.00;;;;;;;;5039227;28;51392;-46
2022/03/02 00:35:10;;;;;;;;;23.00;18.25;;;;;;;;5034529;28;51553;-45
2022/03/02 00:37:54;;;;;;;;;17.00;15.75;;;;;;;;5035711;28;51522;-45
2022/03/02 00:40:40;;;;;;;;;24.75;20.50;;;;;;;;5032568;28;51127;-47
2022/03/02 00:43:24;;;;;;;;;26.50;18.00;;;;;;;;5038450;28;51066;-45
2022/03/02 00:46:09;;;;;;;;;25.25;18.25;;;;;;;;5030676;28;52055;-46
2022/03/02 00:48:53;;;;;;;;;22.00;18.75;;;;;;;;5031697;28;51153;-49
2022/03/02 00:51:37;;;;;;;;;20.00;16.00;;;;;;;;5023623;28;51454;-46
2022/03/02 00:54:22;;;;;;;;;20.00;15.00;;;;;;;;5026591;28;51090;-46
2022/03/02 00:57:06;;;;;;;;;19.50;17.00;;;;;;;;5025763;28;51089;-46
2022/03/02 00:59:51;;;;;;;;;20.00;17.75;;;;;;;;5025809;28;51097;-46
2022/03/02 01:02:36;;;;;;;;;16.75;12.50;;;;;;;;5038901;28;51551;-46
2022/03/02 01:05:20;;;;;;;;;21.00;17.25;;;;;;;;5029909;28;51176;-47
2022/03/02 01:08:05;;;;;;;;;19.50;16.75;;;;;;;;5038286;28;51298;-46
2022/03/02 01:10:49;;;;;;;;;20.25;19.25;;;;;;;;5031477;28;51225;-45
2022/03/02 01:13:34;;;;;;;;;20.00;17.50;;;;;;;;5033284;28;52791;-46
2022/03/02 01:16:18;;;;;;;;;23.50;18.00;;;;;;;;5021859;28;51103;-45
2022/03/02 01:19:03;;;;;;;;;23.75;19.50;;;;;;;;5023353;28;51040;-46
2022/03/02 01:21:48;;;;;;;;;20.00;18.00;;;;;;;;5031562;28;51453;-45
2022/03/02 01:24:32;;;;;;;;;25.75;17.50;;;;;;;;5009432;28;51155;-45
2022/03/02 01:27:18;;;;;;;;;25.50;20.50;;;;;;;;5042172;28;51153;-47
2022/03/02 01:30:03;;;;;;;;;23.25;19.75;;;;;;;;5042414;28;51077;-44
2022/03/02 01:32:48;;;;;;;;;23.00;17.50;;;;;;;;5041858;28;51453;-44
2022/03/02 01:35:32;;;;;;;;;25.75;20.00;;;;;;;;5025940;28;51137;-46
2022/03/02 01:38:16;;;;;;;;;24.75;22.50;;;;;;;;5029633;28;51575;-46
2022/03/02 01:41:01;;;;;;;;;19.75;18.50;;;;;;;;5035159;28;52418;-47
2022/03/02 01:43:46;;;;;;;;;22.75;20.00;;;;;;;;5039194;28;51099;-46
2022/03/02 01:46:30;;;;;;;;;20.75;19.25;;;;;;;;5035432;28;51177;-47
2022/03/02 01:49:14;;;;;;;;;26.25;19.00;;;;;;;;5030235;28;51459;-47
2022/03/02 01:51:59;;;;;;;;;22.00;17.50;;;;;;;;5036611;28;51163;-45
2022/03/02 01:54:43;;;;;;;;;26.50;19.75;;;;;;;;5039357;28;51105;-44
2022/03/02 01:57:27;;;;;;;;;25.25;20.75;;;;;;;;5026520;28;51457;-45
2022/03/02 02:00:14;;;;;;;;;22.75;19.50;;;;;;;;5034378;28;51147;-44
2022/03/02 02:03:00;;;;;;;;;22.00;18.00;;;;;;;;5038423;28;51220;-47
2022/03/02 02:05:44;;;;;;;;;26.00;22.50;;;;;;;;5023214;28;51048;-44
2022/03/02 02:08:28;;;;;;;;;26.50;20.00;;;;;;;;5024201;28;51157;-45
2022/03/02 02:11:13;;;;;;;;;23.00;17.25;;;;;;;;5038124;28;51125;-44
2022/03/02 02:13:58;;;;;;;;;24.25;18.00;;;;;;;;5041247;28;51094;-46
2022/03/02 02:16:42;;;;;;;;;27.75;20.25;;;;;;;;5029687;28;51119;-46
2022/03/02 02:19:26;;;;;;;;;30.00;18.50;;;;;;;;5041311;28;51495;-46
2022/03/02 02:22:10;;;;;;;;;27.50;20.75;;;;;;;;5030003;28;51532;-45
2022/03/02 02:24:55;;;;;;;;;20.25;17.50;;;;;;;;5040973;28;51168;-47
2022/03/02 02:27:40;;;;;;;;;22.00;19.00;;;;;;;;5040677;28;51531;-44
2022/03/02 02:30:25;;;;;;;;;26.25;20.75;;;;;;;;5029396;28;51390;-47
2022/03/02 02:33:11;;;;;;;;;28.75;21.00;;;;;;;;5008079;28;51079;-43
2022/03/02 02:35:56;;;;;;;;;26.75;20.75;;;;;;;;5035956;28;51169;-45
2022/03/02 02:38:41;;;;;;;;;23.00;20.50;;;;;;;;5040670;28;51087;-47
2022/03/02 02:41:25;;;;;;;;;26.50;18.25;;;;;;;;5036145;28;51117;-44
2022/03/02 02:44:10;;;;;;;;;26.25;21.25;;;;;;;;5028383;28;51394;-45
2022/03/02 02:46:54;;;;;;;;;26.75;19.50;;;;;;;;5023437;28;51152;-46
2022/03/02 02:49:38;;;;;;;;;19.75;16.25;;;;;;;;5035436;28;51157;-46
2022/03/02 02:52:24;;;;;;;;;24.00;19.50;;;;;;;;5031514;28;51047;-45
2022/03/02 02:55:09;;;;;;;;;21.50;19.00;;;;;;;;5040846;28;51089;-47
2022/03/02 02:57:54;;;;;;;;;23.25;17.50;;;;;;;;5027319;28;51205;-45
2022/03/02 03:00:43;;;;;;;;;23.00;18.00;;;;;;;;5025777;28;51530;-48
2022/03/02 03:03:27;;;;;;;;;14.75;13.00;;;;;;;;5028993;28;51109;-45
2022/03/02 03:06:12;;;;;;;;;31.50;22.00;;;;;;;;5027965;28;51158;-44
2022/03/02 03:08:56;;;;;;;;;16.00;16.00;;;;;;;;5035543;28;51014;-47
2022/03/02 03:11:40;;;;;;;;;31.75;24.00;;;;;;;;5028614;28;51055;-47
2022/03/02 03:14:25;;;;;;;;;23.25;19.75;;;;;;;;5027724;28;51181;-46
2022/03/02 03:17:09;;;;;;;;;21.25;19.75;;;;;;;;5020623;28;51634;-47
2022/03/02 03:19:54;;;;;;;;;21.00;15.75;;;;;;;;5020807;28;51251;-46
2022/03/02 03:22:38;;;;;;;;;32.25;21.25;;;;;;;;5023554;28;51256;-45
2022/03/02 03:25:23;;;;;;;;;23.00;20.50;;;;;;;;5038514;28;51101;-46
2022/03/02 03:28:07;;;;;;;;;26.00;21.00;;;;;;;;5020982;28;51264;-45
2022/03/02 03:30:52;;;;;;;;;26.25;20.50;;;;;;;;5039935;28;51176;-45
2022/03/02 03:33:36;;;;;;;;;24.00;20.00;;;;;;;;5040300;28;51065;-47
2022/03/02 03:36:20;;;;;;;;;19.25;19.00;;;;;;;;5019637;28;51099;-46
2022/03/02 03:39:05;;;;;;;;;21.75;21.00;;;;;;;;5026068;28;51126;-45
2022/03/02 03:41:49;;;;;;;;;28.25;22.50;;;;;;;;5039748;28;51521;-47
2022/03/02 03:44:34;;;;;;;;;14.00;9.75;;;;;;;;5036088;28;51095;-44
2022/03/02 03:47:18;;;;;;;;;22.00;20.50;;;;;;;;5029445;28;50984;-46
2022/03/02 03:50:04;;;;;;;;;29.50;22.75;;;;;;;;5039911;28;51024;-45
2022/03/02 03:52:48;;;;;;;;;25.50;20.50;;;;;;;;5039865;28;51077;-45
2022/03/02 03:55:33;;;;;;;;;25.25;22.00;;;;;;;;5022636;28;51094;-47
2022/03/02 03:58:17;;;;;;;;;31.50;20.25;;;;;;;;5031524;28;51074;-48
2022/03/02 04:01:02;;;;;;;;;25.00;21.75;;;;;;;;5032173;28;51370;-47
2022/03/02 04:03:47;;;;;;;;;25.50;23.75;;;;;;;;5031153;28;51095;-45
2022/03/02 04:06:31;;;;;;;;;25.50;21.25;;;;;;;;5039334;28;51133;-46
2022/03/02 04:09:15;;;;;;;;;28.50;21.75;;;;;;;;5036236;28;51188;-46
2022/03/02 04:12:00;;;;;;;;;22.25;21.25;;;;;;;;5033872;28;51159;-46
2022/03/02 04:14:45;;;;;;;;;33.50;23.00;;;;;;;;5036717;28;51056;-49
2022/03/02 04:17:29;;;;;;;;;23.50;19.50;;;;;;;;5022239;28;51081;-49
2022/03/02 04:20:13;;;;;;;;;24.50;18.50;;;;;;;;5038362;28;51259;-46
2022/03/02 04:22:58;;;;;;;;;29.00;23.25;;;;;;;;5022172;28;50983;-46
2022/03/02 04:25:42;;;;;;;;;22.00;16.50;;;;;;;;5021450;28;51158;-44
2022/03/02 04:28:29;;;;;;;;;27.25;20.75;;;;;;;;5023218;28;51185;-45
2022/03/02 04:31:13;;;;;;;;;21.50;17.00;;;;;;;;5021055;28;51117;-45
2022/03/02 04:33:57;;;;;;;;;24.25;21.25;;;;;;;;5028223;28;51150;-45
2022/03/02 04:36:42;;;;;;;;;26.50;19.00;;;;;;;;5033718;28;51038;-46
2022/03/02 04:39:26;;;;;;;;;26.00;21.50;;;;;;;;5033231;28;51121;-46
2022/03/02 04:42:11;;;;;;;;;24.50;18.75;;;;;;;;5024758;28;51101;-47
2022/03/02 04:44:55;;;;;;;;;25.25;19.50;;;;;;;;5035454;28;51109;-44
2022/03/02 04:47:40;;;;;;;;;26.00;21.00;;;;;;;;5027675;28;51320;-43
2022/03/02 04:50:25;;;;;;;;;30.50;21.00;;;;;;;;5029945;28;51589;-46
2022/03/02 04:53:09;;;;;;;;;22.25;18.75;;;;;;;;5032458;28;51182;-48
2022/03/02 04:55:53;;;;;;;;;23.00;20.00;;;;;;;;5039305;28;51535;-44
2022/03/02 04:58:38;;;;;;;;;22.75;20.75;;;;;;;;5030760;28;51050;-46
2022/03/02 05:01:22;;;;;;;;;22.75;20.50;;;;;;;;5012964;28;51188;-46
2022/03/02 05:04:07;;;;;;;;;21.75;20.25;;;;;;;;5041095;28;51433;-43
2022/03/02 05:06:51;;;;;;;;;24.00;21.00;;;;;;;;5027493;28;51192;-44
2022/03/02 05:09:35;;;;;;;;;25.25;22.00;;;;;;;;5036393;28;51193;-46
2022/03/02 05:12:20;;;;;;;;;30.50;20.25;;;;;;;;5042727;28;51026;-45
2022/03/02 05:15:06;;;;;;;;;25.00;21.50;;;;;;;;5038811;28;51259;-47
2022/03/02 05:17:50;;;;;;;;;24.50;21.50;;;;;;;;5036044;28;51154;-44
2022/03/02 05:20:34;;;;;;;;;23.25;21.25;;;;;;;;5026349;28;51081;-45
2022/03/02 05:23:18;;;;;;;;;23.50;22.00;;;;;;;;5028236;28;51498;-46
2022/03/02 05:26:03;;;;;;;;;25.50;20.50;;;;;;;;5013516;28;51174;-47
2022/03/02 05:28:47;;;;;;;;;19.25;17.75;;;;;;;;5033998;28;51509;-59
2022/03/02 05:31:32;;;;;;;;;23.00;18.00;;;;;;;;5035691;28;51178;-59
2022/03/02 05:34:16;;;;;;;;;19.00;14.00;;;;;;;;5022341;28;51482;-57
2022/03/02 05:37:01;;;;;;;;;22.25;19.00;;;;;;;;5025870;28;51014;-60
2022/03/02 05:39:45;;;;;;;;;28.25;20.75;;;;;;;;5029639;28;51580;-60
2022/03/02 05:42:30;;;;;;;;;22.50;18.25;;;;;;;;5025424;28;51065;-58
2022/03/02 05:45:14;;;;;;;;;17.25;16.00;;;;;;;;5026002;28;51683;-60
2022/03/02 05:47:59;;;;;;;;;26.50;26.25;;;;;;;;5029638;28;51134;-62
2022/03/02 05:50:43;;;;;;;;;21.50;17.50;;;;;;;;5026376;28;51529;-60
2022/03/02 05:53:28;;;;;;;;;25.00;20.25;;;;;;;;5021740;28;51111;-58
2022/03/02 05:56:12;;;;;;;;;27.75;20.75;;;;;;;;5029985;28;51693;-60
2022/03/02 05:58:56;;;;;;;;;26.25;22.50;;;;;;;;5024942;28;51340;-60
2022/03/02 06:01:41;;;;;;;;;26.25;20.75;;;;;;;;5022175;28;51342;-59
2022/03/02 06:04:25;;;;;;;;;27.25;21.50;;;;;;;;5020272;28;51564;-60
2022/03/02 06:07:10;;;;;;;;;23.75;19.75;;;;;;;;5028489;28;51260;-62
2022/03/02 06:09:54;;;;;;;;;24.00;20.50;;;;;;;;5025275;28;51137;-57
2022/03/02 06:12:39;;;;;;;;;27.50;21.00;;;;;;;;5029583;28;52375;-60
2022/03/02 06:15:23;;;;;;;;;23.00;21.00;;;;;;;;5030416;28;51157;-56
2022/03/02 06:18:08;;;;;;;;;25.25;19.75;;;;;;;;5040770;28;51140;-59
2022/03/02 06:20:54;;;;;;;;;28.25;21.00;;;;;;;;5040993;28;51503;-59
2022/03/02 06:23:38;;;;;;;;;30.75;24.25;;;;;;;;5027654;28;51181;-60
2022/03/02 06:26:24;;;;;;;;;28.50;20.25;;;;;;;;5041360;28;51331;-59
2022/03/02 06:29:09;;;;;;;;;24.75;23.00;;;;;;;;5041237;28;51024;-59
2022/03/02 06:31:53;;;;;;;;;29.00;22.75;;;;;;;;5041430;28;51216;-59
2022/03/02 06:34:38;;;;;;;;;27.00;19.25;;;;;;;;5033719;28;51601;-60
2022/03/02 06:37:23;;;;;;;;;24.75;23.25;;;;;;;;5032070;28;51222;-58
2022/03/02 06:40:08;;;;;;;;;23.75;19.00;;;;;;;;5031885;28;51093;-60
2022/03/02 06:43:07;;;;;;;;;23.00;21.25;;;;;;;;5025045;28;51074;-58
2022/03/02 06:45:55;;;;;;;;;27.25;23.00;;;;;;;;5020467;28;51186;-61
2022/03/02 06:48:51;;;;;;;;;23.75;22.50;;;;;;;;5037593;28;51162;-58
2022/03/02 06:51:39;;;;;;;;;27.00;22.25;;;;;;;;5037339;28;51124;-58
2022/03/02 06:54:26;;;;;;;;;26.50;19.00;;;;;;;;5034354;28;51406;-61
2022/03/02 06:57:13;;;;;;;;;30.25;23.00;;;;;;;;5036623;28;51201;-59
2022/03/02 06:59:59;;;;;;;;;23.50;21.75;;;;;;;;5028347;28;51441;-59
2022/03/02 07:02:48;;;;;;;;;22.75;19.00;;;;;;;;5029209;28;52114;-60
2022/03/02 07:05:33;;;;;;;;;23.00;21.50;;;;;;;;5028583;28;51024;-61
2022/03/02 07:08:18;;;;;;;;;24.00;20.00;;;;;;;;5021794;28;51409;-59
2022/03/02 07:11:02;;;;;;;;;26.25;21.75;;;;;;;;5021182;28;51554;-57
2022/03/02 07:13:47;;;;;;;;;27.25;20.50;;;;;;;;5022575;28;51141;-59
2022/03/02 07:16:32;;;;;;;;;28.00;22.75;;;;;;;;5024102;28;51142;-61
2022/03/02 07:19:16;;;;;;;;;32.50;22.75;;;;;;;;5036378;28;51426;-58
2022/03/02 07:22:05;;;;;;;;;28.75;20.75;;;;;;;;5039535;28;51199;-59
2022/03/02 07:24:53;;;;;;;;;28.50;21.50;;;;;;;;5022829;28;51534;-60
2022/03/02 07:27:38;;;;;;;;;25.75;22.00;;;;;;;;5037193;28;51003;-58
2022/03/02 07:30:23;;;;;;;;;25.50;20.50;;;;;;;;5038305;28;51156;-59
2022/03/02 07:33:07;;;;;;;;;27.25;20.00;;;;;;;;5039445;28;51428;-60
2022/03/02 07:35:56;;;;;;;;;26.25;22.25;;;;;;;;5034943;28;51816;-60
2022/03/02 07:38:40;;;;;;;;;30.75;21.50;;;;;;;;5029897;28;51107;-58
2022/03/02 07:41:25;;;;;;;;;28.25;21.75;;;;;;;;5036000;28;51196;-58
2022/03/02 07:44:10;;;;;;;;;29.75;24.00;;;;;;;;5018524;28;51623;-60
2022/03/02 07:46:54;;;;;;;;;29.25;20.50;;;;;;;;5018395;28;51115;-60
2022/03/02 07:49:38;;;;;;;;;23.50;18.50;;;;;;;;5036396;28;51560;-59
2022/03/02 07:52:28;;;;;;;;;24.50;20.50;;;;;;;;5034616;28;51433;-61
2022/03/02 07:55:12;;;;;;;;;26.50;20.00;;;;;;;;5021993;28;51154;-61
2022/03/02 07:57:57;;;;;;;;;21.50;16.50;;;;;;;;5021937;28;51455;-61
2022/03/02 08:00:41;;;;;;;;;22.00;19.00;;;;;;;;5036268;28;51428;-61
2022/03/02 08:03:27;;;;;;;;;21.25;17.25;;;;;;;;5034768;28;51460;-60
2022/03/02 08:06:12;;;;;;;;;17.50;15.25;;;;;;;;5023951;28;51150;-59
2022/03/02 08:08:57;;;;;;;;;18.25;17.50;;;;;;;;5037074;28;51073;-61
2022/03/02 08:11:41;;;;;;;;;29.50;21.00;;;;;;;;5037228;28;51601;-58
2022/03/02 08:14:25;;;;;;;;;20.75;17.75;;;;;;;;5038138;28;51157;-58
2022/03/02 08:17:10;;;;;;;;;20.50;16.75;;;;;;;;5038584;28;51144;-59
2022/03/02 08:19:54;;;;;;;;;22.00;16.00;;;;;;;;5038706;28;51429;-59
2022/03/02 08:22:44;;;;;;;;;21.75;18.25;;;;;;;;5027890;28;51113;-59
2022/03/02 08:25:30;;;;;;;;;20.75;16.50;;;;;;;;5037788;28;51130;-62
2022/03/02 08:28:15;;;;;;;;;10.00;10.00;;;;;;;;5019429;28;51515;-59
2022/03/02 08:31:00;;;;;;;;;20.25;16.75;;;;;;;;5020554;28;51356;-59
2022/03/02 08:33:44;;;;;;;;;18.25;16.75;;;;;;;;5034124;28;51449;-60
2022/03/02 08:36:33;;;;;;;;;18.75;16.50;;;;;;;;5038818;28;51345;-61
2022/03/02 08:39:18;;;;;;;;;14.75;13.25;;;;;;;;5027301;28;51032;-61
2022/03/02 08:42:02;;;;;;;;;16.25;16.25;;;;;;;;5018969;28;51110;-61
2022/03/02 08:44:47;;;;;;;;;17.75;17.25;;;;;;;;5034044;28;50958;-60
2022/03/02 08:47:32;;;;;;;;;31.50;20.75;;;;;;;;5031831;28;51058;-63
2022/03/02 08:50:16;;;;;;;;;20.75;18.75;;;;;;;;5039017;28;51514;-59
2022/03/02 08:53:01;;;;;;;;;18.25;14.00;;;;;;;;5038636;28;51137;-60
2022/03/02 08:55:47;;;;;;;;;20.00;15.00;;;;;;;;5038852;28;51411;-60
2022/03/02 08:58:32;;;;;;;;;15.00;15.00;;;;;;;;5038623;28;51097;-60
2022/03/02 09:01:18;;;;;;;;;20.50;17.25;;;;;;;;5038306;28;51300;-59
2022/03/02 09:04:02;;;;;;;;;20.50;18.25;;;;;;;;5032500;28;51427;-58
2022/03/02 09:06:47;;;;;;;;;20.50;16.00;;;;;;;;5038628;28;51074;-62
2022/03/02 09:09:32;;;;;;;;;21.50;17.50;;;;;;;;5017620;28;51133;-60
2022/03/02 09:12:16;;;;;;;;;17.75;14.25;;;;;;;;5038136;28;51153;-60
2022/03/02 09:15:00;;;;;;;;;18.75;15.25;;;;;;;;5037912;28;51464;-61
2022/03/02 09:17:45;;;;;;;;;19.00;16.25;;;;;;;;5017309;28;51269;-59
2022/03/02 09:20:30;;;;;;;;;20.50;18.00;;;;;;;;5038250;28;52078;-57
2022/03/02 09:23:16;;;;;;;;;18.50;17.00;;;;;;;;5032203;28;51532;-62
2022/03/02 09:26:05;;;;;;;;;18.75;15.50;;;;;;;;5037578;28;51169;-59
2022/03/02 09:28:52;;;;;;;;;17.00;13.25;;;;;;;;5021543;28;51474;-62
2022/03/02 09:31:37;;;;;;;;;17.50;15.50;;;;;;;;5016934;28;52056;-61
2022/03/02 09:34:24;;;;;;;;;21.00;16.50;;;;;;;;5017470;28;51171;-60
2022/03/02 09:37:09;;;;;;;;;21.00;17.50;;;;;;;;5037857;28;51141;-60
2022/03/02 09:39:54;;;;;;;;;22.50;16.50;;;;;;;;5041949;28;51057;-61
2022/03/02 09:42:45;;;;;;;;;21.25;16.75;;;;;;;;5041554;28;51160;-60
2022/03/02 09:45:30;;;;;;;;;17.00;17.00;;;;;;;;5041432;28;51261;-59
2022/03/02 09:48:24;;;;;;;;;20.00;15.00;;;;;;;;5024731;28;51414;-63
2022/03/02 09:51:09;;;;;;;;;22.25;16.50;;;;;;;;5024412;28;51437;-62
2022/03/02 09:53:53;;;;;;;;;19.75;15.50;;;;;;;;5041371;28;51484;-59
2022/03/02 09:56:38;;;;;;;;;25.50;18.25;;;;;;;;5029097;28;51182;-59
2022/03/02 09:59:25;;;;;;;;;18.50;17.25;;;;;;;;5036824;28;51177;-61
2022/03/02 10:02:11;;;;;;;;;19.25;18.00;;;;;;;;5036109;28;51175;-62
2022/03/02 10:04:58;;;;;;;;;20.50;18.25;;;;;;;;5040299;28;51476;-59
2022/03/02 10:07:45;;;;;;;;;23.75;19.75;;;;;;;;5038813;28;51273;-63
2022/03/02 10:10:31;;;;;;;;;22.75;17.75;;;;;;;;5022205;28;51023;-61
2022/03/02 10:13:17;;;;;;;;;21.25;17.25;;;;;;;;5036663;28;51023;-60
2022/03/02 10:16:03;;;;;;;;;23.25;19.00;;;;;;;;5033487;28;51064;-59
2022/03/02 10:19:01;;;;;;;;;20.75;16.00;;;;;;;;5029765;28;51347;-60
2022/03/02 10:21:51;;;;;;;;;21.00;15.00;;;;;;;;5040989;28;51136;-60
2022/03/02 10:24:43;;;;;;;;;19.50;17.75;;;;;;;;5041053;28;51576;-58
2022/03/02 10:27:34;;;;;;;;;25.75;21.00;;;;;;;;5036742;28;51428;-60
2022/03/02 10:30:18;;;;;;;;;20.75;15.25;;;;;;;;5024738;28;51094;-58
2022/03/02 10:33:06;;;;;;;;;18.25;15.25;;;;;;;;5031557;28;51237;-62
2022/03/02 10:36:02;;;;;;;;;22.25;17.50;;;;;;;;5013563;28;51173;-62
2022/03/02 10:38:49;;;;;;;;;20.75;15.75;;;;;;;;5040399;28;52220;-60
2022/03/02 10:41:37;;;;;;;;;19.75;16.75;;;;;;;;5040255;28;51328;-59
2022/03/02 10:44:33;;;;;;;;;23.75;20.25;;;;;;;;5024267;28;51170;-60
2022/03/02 10:47:19;;;;;;;;;22.25;18.50;;;;;;;;5032688;28;51236;-60
2022/03/02 10:50:04;;;;;;;;;19.50;16.50;;;;;;;;5039568;28;51122;-59
2022/03/02 10:52:48;;;;;;;;;20.50;18.50;;;;;;;;5036956;28;51576;-60
2022/03/02 10:55:33;;;;;;;;;25.00;21.00;;;;;;;;5019832;28;51209;-60
2022/03/02 10:58:18;;;;;;;;;20.75;17.25;;;;;;;;5025147;28;51149;-60
2022/03/02 11:01:03;;;;;;;;;21.50;18.75;;;;;;;;5032406;28;51187;-61
2022/03/02 11:03:47;;;;;;;;;21.25;16.75;;;;;;;;5020901;28;51358;-62
2022/03/02 11:06:32;;;;;;;;;26.00;16.50;;;;;;;;5019407;28;51078;-60
2022/03/02 11:09:17;;;;;;;;;22.50;18.00;;;;;;;;5022844;28;51436;-61
2022/03/02 11:12:01;;;;;;;;;24.50;17.50;;;;;;;;5025693;28;51025;-61
2022/03/02 11:14:55;;;;;;;;;22.00;17.25;;;;;;;;5023635;28;51216;-60
2022/03/02 11:17:54;;;;;;;;;22.75;16.50;;;;;;;;5034841;28;51282;-60
2022/03/02 11:20:38;;;;;;;;;21.00;15.50;;;;;;;;5038592;28;51601;-60
2022/03/02 11:23:23;;;;;;;;;20.00;17.25;;;;;;;;5024377;28;51163;-62
2022/03/02 11:26:10;;;;;;;;;22.50;18.00;;;;;;;;5026365;28;51164;-60
2022/03/02 11:28:56;;;;;;;;;18.75;17.50;;;;;;;;5027416;28;51739;-62
2022/03/02 11:31:47;;;;;;;;;20.25;17.25;;;;;;;;5021007;28;51287;-62
2022/03/02 11:34:33;;;;;;;;;24.00;20.25;;;;;;;;5023785;28;51856;-60
2022/03/02 11:37:17;;;;;;;;;19.50;15.75;;;;;;;;5035272;28;51216;-60
2022/03/02 11:40:03;;;;;;;;;24.25;19.50;;;;;;;;5038941;28;51077;-59
2022/03/02 11:42:47;;;;;;;;;30.00;20.25;;;;;;;;5037005;28;51262;-59
2022/03/02 11:45:36;;;;;;;;;23.50;17.25;;;;;;;;5026552;28;51709;-59
2022/03/02 11:48:20;;;;;;;;;22.00;17.75;;;;;;;;5031190;28;51244;-60
2022/03/02 11:51:04;;;;;;;;;24.75;18.25;;;;;;;;5033316;28;51202;-61
2022/03/02 11:53:53;;;;;;;;;20.25;18.25;;;;;;;;5025245;28;51545;-61
2022/03/02 11:56:38;;;;;;;;;18.00;16.75;;;;;;;;5028955;28;51191;-60
2022/03/02 11:59:22;;;;;;;;;19.75;18.50;;;;;;;;5028432;28;51369;-61
2022/03/02 12:02:14;;;;;;;;;21.50;17.25;;;;;;;;5031805;28;51168;-58
2022/03/02 12:04:59;;;;;;;;;19.75;16.25;;;;;;;;5035409;28;51277;-60
2022/03/02 12:07:47;;;;;;;;;19.00;15.25;;;;;;;;5018531;28;51133;-59
2022/03/02 12:10:35;;;;;;;;;19.00;16.25;;;;;;;;5019986;28;51543;-63
2022/03/02 12:13:20;;;;;;;;;20.25;17.50;;;;;;;;5023110;28;51204;-64
2022/03/02 12:16:04;;;;;;;;;19.75;17.50;;;;;;;;5023230;28;51153;-63
2022/03/02 12:18:52;;;;;;;;;21.25;16.75;;;;;;;;5038107;28;51049;-61
2022/03/02 12:21:36;;;;;;;;;23.75;16.25;;;;;;;;5038682;28;51196;-60
2022/03/02 12:24:28;;;;;;;;;24.00;18.00;;;;;;;;5027951;28;51791;-59
2022/03/02 12:27:13;;;;;;;;;21.00;16.25;;;;;;;;5017707;28;50939;-59
2022/03/02 12:30:03;;;;;;;;;21.50;17.50;;;;;;;;5037243;28;51151;-60
2022/03/02 12:32:48;;;;;;;;;22.75;16.00;;;;;;;;5034210;28;51203;-60
2022/03/02 12:35:33;;;;;;;;;20.00;18.50;;;;;;;;5018455;28;51322;-61
2022/03/02 12:38:17;;;;;;;;;15.00;14.50;;;;;;;;5018378;28;51067;-60
2022/03/02 12:41:01;;;;;;;;;19.50;14.50;;;;;;;;5029405;28;51184;-59
2022/03/02 12:43:46;;;;;;;;;18.50;13.75;;;;;;;;5028982;28;51338;-57
2022/03/02 12:46:31;;;;;;;;;16.00;15.50;;;;;;;;5038115;28;51145;-62
2022/03/02 12:49:16;;;;;;;;;20.50;18.75;;;;;;;;5038112;28;51114;-63
2022/03/02 12:52:01;;;;;;;;;21.75;19.00;;;;;;;;5019740;28;51466;-62
2022/03/02 12:54:47;;;;;;;;;19.50;15.50;;;;;;;;5034284;28;52310;-60
2022/03/02 12:57:32;;;;;;;;;20.25;13.25;;;;;;;;5037859;28;51438;-61
2022/03/02 13:00:18;;;;;;;;;16.50;15.00;;;;;;;;5028414;28;51542;-62
2022/03/02 13:03:06;;;;;;;;;18.50;16.25;;;;;;;;5025253;28;51176;-63
2022/03/02 13:05:53;;;;;;;;;24.00;17.75;;;;;;;;5038648;28;51239;-58
2022/03/02 13:08:43;;;;;;;;;22.75;16.75;;;;;;;;5036963;28;51100;-58
2022/03/02 13:11:28;;;;;;;;;23.75;19.00;;;;;;;;5019347;28;51138;-61
2022/03/02 13:14:42;;;;;;;;;20.00;16.25;;;;;;;;5038377;28;51046;-63
2022/03/02 13:17:26;;;;;;;;;23.00;18.25;;;;;;;;5033414;28;51136;-60
2022/03/02 13:20:18;;;;;;;;;20.25;17.25;;;;;;;;5024638;28;51466;-61
2022/03/02 13:23:22;;;;;;;;;22.00;17.25;;;;;;;;5032157;28;51190;-58
2022/03/02 13:26:06;;;;;;;;;17.25;15.00;;;;;;;;5041977;28;51159;-61
2022/03/02 13:29:29;;;;;;;;;21.00;17.25;;;;;;;;5025619;28;51042;-60
2022/03/02 13:32:13;;;;;;;;;17.25;10.75;;;;;;;;5010954;28;51161;-63
2022/03/02 13:35:03;;;;;;;;;18.00;14.00;;;;;;;;5023629;28;51412;-58
2022/03/02 13:37:57;;;;;;;;;20.00;15.50;;;;;;;;5025022;28;51157;-59
2022/03/02 13:40:43;;;;;;;;;20.00;17.75;;;;;;;;5021348;28;51094;-60
2022/03/02 13:43:28;;;;;;;;;22.00;15.25;;;;;;;;5021558;28;51086;-60
2022/03/02 13:46:14;;;;;;;;;25.25;16.00;;;;;;;;5034299;28;51105;-61
2022/03/02 13:48:58;;;;;;;;;25.25;18.00;;;;;;;;5040714;28;51113;-62
2022/03/02 13:51:50;;;;;;;;;23.50;18.75;;;;;;;;5026221;28;51219;-59
2022/03/02 13:54:34;;;;;;;;;21.75;16.75;;;;;;;;5039864;28;51163;-60
2022/03/02 13:57:19;;;;;;;;;22.25;18.25;;;;;;;;5021785;28;51185;-61
2022/03/02 14:00:19;;;;;;;;;21.25;16.50;;;;;;;;5026834;28;51125;-61
2022/03/02 14:03:04;;;;;;;;;21.50;17.00;;;;;;;;5021077;28;51290;-63
2022/03/02 14:05:48;;;;;;;;;20.00;16.00;;;;;;;;5028233;28;51232;-61
2022/03/02 14:08:43;;;;;;;;;24.00;17.75;;;;;;;;5025684;28;51137;-62
2022/03/02 14:11:39;;;;;;;;;22.50;15.75;;;;;;;;5026864;28;51577;-56
2022/03/02 14:14:27;;;;;;;;;23.50;18.00;;;;;;;;5020322;28;51132;-59
2022/03/02 14:17:12;;;;;;;;;19.00;16.00;;;;;;;;5032036;28;51498;-60
2022/03/02 14:19:57;;;;;;;;;20.50;16.50;;;;;;;;5025834;28;51178;-58
2022/03/02 14:22:41;;;;;;;;;19.50;15.00;;;;;;;;5023312;28;51089;-58
2022/03/02 14:25:26;;;;;;;;;24.50;20.75;;;;;;;;5040779;28;51180;-58
2022/03/02 14:28:13;;;;;;;;;25.50;19.75;;;;;;;;5040797;28;51116;-57
2022/03/02 14:30:59;;;;;;;;;15.75;13.50;;;;;;;;5025004;28;51070;-59
2022/03/02 14:33:53;;;;;;;;;18.50;17.75;;;;;;;;5021489;28;51177;-63
2022/03/02 14:36:37;;;;;;;;;24.25;16.50;;;;;;;;5021744;28;51134;-60
2022/03/02 14:39:21;;;;;;;;;19.75;16.50;;;;;;;;5034573;28;51521;-61
2022/03/02 14:42:13;;;;;;;;;23.50;19.50;;;;;;;;5031196;28;51512;-60
2022/03/02 14:45:15;;;;;;;;;19.75;17.00;;;;;;;;5030123;28;52056;-60
2022/03/02 14:48:06;;;;;;;;;22.00;15.75;;;;;;;;5025286;28;51150;-63
2022/03/02 14:50:55;;;;;;;;;26.25;17.50;;;;;;;;5022040;28;52281;-60
2022/03/02 14:53:39;;;;;;;;;25.50;18.50;;;;;;;;5030764;28;51132;-59
2022/03/02 14:56:26;;;;;;;;;20.25;17.75;;;;;;;;5020043;28;51140;-59
2022/03/02 14:59:12;;;;;;;;;24.75;17.25;;;;;;;;5040289;28;51159;-62
2022/03/02 15:01:56;;;;;;;;;20.25;17.50;;;;;;;;5039532;28;51169;-61
2022/03/02 15:04:54;;;;;;;;;25.50;17.00;;;;;;;;5035044;28;51194;-59
2022/03/02 15:07:39;;;;;;;;;22.25;18.50;;;;;;;;5038646;28;51204;-59
2022/03/02 15:10:24;;;;;;;;;24.25;19.50;;;;;;;;5039325;28;51127;-64
2022/03/02 15:16:12;;;;;;;;;21.25;17.50;;;;;;;;5035201;28;51317;-58
2022/03/02 15:18:57;;;;;;;;;21.50;17.75;;;;;;;;5027828;28;51197;-60
2022/03/02 15:21:43;;;;;;;;;24.75;18.25;;;;;;;;5022414;28;51027;-63
2022/03/02 15:24:28;;;;;;;;;18.00;16.50;;;;;;;;5020470;28;51447;-58
2022/03/02 15:27:13;;;;;;;;;20.75;16.00;;;;;;;;5029128;28;51375;-60
2022/03/02 15:30:15;;;;;;;;;23.00;17.25;;;;;;;;5030769;28;51098;-60
2022/03/02 15:33:11;;;;;;;;;22.75;16.75;;;;;;;;5029189;28;51567;-60
2022/03/02 15:36:06;;;;;;;;;27.75;18.25;;;;;;;;5027284;28;51126;-63
2022/03/02 15:38:51;;;;;;;;;29.25;22.75;;;;;;;;5020655;28;51324;-58
2022/03/02 15:41:35;;;;;;;;;26.50;22.50;;;;;;;;5021107;28;51472;-58
2022/03/02 15:44:22;;;;;;;;;25.50;20.00;;;;;;;;5020265;28;51092;-61
2022/03/02 15:47:06;;;;;;;;;17.75;14.00;;;;;;;;5030997;28;51070;-60
2022/03/02 15:49:52;;;;;;;;;22.00;18.50;;;;;;;;5030298;28;51193;-58
2022/03/02 15:52:38;;;;;;;;;19.00;13.75;;;;;;;;5024846;28;51205;-58
2022/03/02 15:55:23;;;;;;;;;25.25;20.00;;;;;;;;5018870;28;51067;-60
2022/03/02 15:58:14;;;;;;;;;28.75;20.00;;;;;;;;5037694;28;51626;-60
2022/03/02 16:00:58;;;;;;;;;28.75;21.75;;;;;;;;5018791;28;51141;-59
2022/03/02 16:03:53;;;;;;;;;24.00;21.75;;;;;;;;5018618;28;51183;-64
2022/03/02 16:06:37;;;;;;;;;25.00;22.25;;;;;;;;5021942;28;51354;-59
2022/03/02 16:09:21;;;;;;;;;24.00;19.25;;;;;;;;5023102;28;51459;-59